sensor_id;sensor_type;location;lat;lon;timestamp;P1;durP1;ratioP1;P2;durP2;ratioP2
36989;SDS011;22898;52.102;5.776;2024-01-25T00:01:52;12.88;;;1.88;;
36989;SDS011;22898;52.102;5.776;2024-01-25T00:04:19;9.77;;;2.42;;
36989;SDS011;22898;52.102;5.776;2024-01-25T00:06:44;14.43;;;1.88;;
36989;SDS011;22898;52.102;5.776;2024-01-25T00:09:10;6.80;;;1.52;;
36989;SDS011;22898;52.102;5.776;2024-01-25T00:11:35;11.05;;;2.80;;
36989;SDS011;22898;52.102;5.776;2024-01-25T00:14:01;6.00;;;1.50;;
36989;SDS011;22898;52.102;5.776;2024-01-25T00:16:28;13.55;;;2.50;;
36989;SDS011;22898;52.102;5.776;2024-01-25T00:18:53;11.73;;;2.05;;
36989;SDS011;22898;52.102;5.776;2024-01-25T00:21:19;14.95;;;2.42;;
36989;SDS011;22898;52.102;5.776;2024-01-25T00:23:45;18.23;;;2.22;;
36989;SDS011;22898;52.102;5.776;2024-01-25T00:26:10;9.80;;;1.85;;
36989;SDS011;22898;52.102;5.776;2024-01-25T00:28:36;8.13;;;1.98;;
36989;SDS011;22898;52.102;5.776;2024-01-25T00:31:02;12.30;;;2.17;;
36989;SDS011;22898;52.102;5.776;2024-01-25T00:33:27;9.85;;;2.10;;
36989;SDS011;22898;52.102;5.776;2024-01-25T00:35:53;8.48;;;1.60;;
36989;SDS011;22898;52.102;5.776;2024-01-25T00:38:19;14.77;;;3.25;;
36989;SDS011;22898;52.102;5.776;2024-01-25T00:40:45;16.20;;;3.40;;
36989;SDS011;22898;52.102;5.776;2024-01-25T00:43:11;14.00;;;2.60;;
36989;SDS011;22898;52.102;5.776;2024-01-25T00:45:37;10.60;;;1.83;;
36989;SDS011;22898;52.102;5.776;2024-01-25T00:48:03;10.05;;;2.67;;
36989;SDS011;22898;52.102;5.776;2024-01-25T00:50:29;11.82;;;2.05;;
36989;SDS011;22898;52.102;5.776;2024-01-25T00:52:55;13.20;;;2.55;;
36989;SDS011;22898;52.102;5.776;2024-01-25T00:55:21;12.75;;;1.90;;
36989;SDS011;22898;52.102;5.776;2024-01-25T00:57:47;11.45;;;2.13;;
36989;SDS011;22898;52.102;5.776;2024-01-25T01:00:13;6.90;;;2.95;;
36989;SDS011;22898;52.102;5.776;2024-01-25T01:02:39;9.32;;;2.00;;
36989;SDS011;22898;52.102;5.776;2024-01-25T01:05:07;8.63;;;2.15;;
36989;SDS011;22898;52.102;5.776;2024-01-25T01:07:34;13.25;;;2.15;;
36989;SDS011;22898;52.102;5.776;2024-01-25T01:10:00;5.28;;;1.90;;
36989;SDS011;22898;52.102;5.776;2024-01-25T01:12:26;12.85;;;1.65;;
36989;SDS011;22898;52.102;5.776;2024-01-25T01:14:52;7.75;;;2.10;;
36989;SDS011;22898;52.102;5.776;2024-01-25T01:17:17;13.70;;;1.50;;
36989;SDS011;22898;52.102;5.776;2024-01-25T01:19:45;12.18;;;1.83;;
36989;SDS011;22898;52.102;5.776;2024-01-25T01:22:11;12.68;;;1.83;;
36989;SDS011;22898;52.102;5.776;2024-01-25T01:24:37;10.13;;;2.67;;
36989;SDS011;22898;52.102;5.776;2024-01-25T01:27:02;12.30;;;3.08;;
36989;SDS011;22898;52.102;5.776;2024-01-25T01:29:28;9.25;;;1.65;;
36989;SDS011;22898;52.102;5.776;2024-01-25T01:31:54;10.05;;;1.85;;
36989;SDS011;22898;52.102;5.776;2024-01-25T01:34:19;10.75;;;1.85;;
36989;SDS011;22898;52.102;5.776;2024-01-25T01:36:45;20.50;;;2.60;;
36989;SDS011;22898;52.102;5.776;2024-01-25T01:39:10;6.07;;;1.80;;
36989;SDS011;22898;52.102;5.776;2024-01-25T01:41:36;13.48;;;2.40;;
36989;SDS011;22898;52.102;5.776;2024-01-25T01:44:01;11.65;;;2.63;;
36989;SDS011;22898;52.102;5.776;2024-01-25T01:46:32;17.05;;;1.95;;
36989;SDS011;22898;52.102;5.776;2024-01-25T01:49:12;12.90;;;2.28;;
36989;SDS011;22898;52.102;5.776;2024-01-25T01:51:39;9.32;;;2.67;;
36989;SDS011;22898;52.102;5.776;2024-01-25T01:54:08;11.02;;;1.42;;
36989;SDS011;22898;52.102;5.776;2024-01-25T01:56:34;10.18;;;2.38;;
36989;SDS011;22898;52.102;5.776;2024-01-25T01:59:01;13.30;;;2.20;;
36989;SDS011;22898;52.102;5.776;2024-01-25T02:01:29;11.27;;;2.72;;
36989;SDS011;22898;52.102;5.776;2024-01-25T02:03:55;12.95;;;2.20;;
36989;SDS011;22898;52.102;5.776;2024-01-25T02:06:23;11.50;;;1.77;;
36989;SDS011;22898;52.102;5.776;2024-01-25T02:08:49;11.75;;;2.15;;
36989;SDS011;22898;52.102;5.776;2024-01-25T02:11:16;15.63;;;2.17;;
36989;SDS011;22898;52.102;5.776;2024-01-25T02:13:42;10.50;;;2.25;;
36989;SDS011;22898;52.102;5.776;2024-01-25T02:16:08;12.98;;;2.10;;
36989;SDS011;22898;52.102;5.776;2024-01-25T02:18:34;11.00;;;2.20;;
36989;SDS011;22898;52.102;5.776;2024-01-25T02:21:00;5.45;;;1.80;;
36989;SDS011;22898;52.102;5.776;2024-01-25T02:23:26;7.85;;;2.30;;
36989;SDS011;22898;52.102;5.776;2024-01-25T02:25:52;18.35;;;2.25;;
36989;SDS011;22898;52.102;5.776;2024-01-25T02:28:18;14.25;;;2.60;;
36989;SDS011;22898;52.102;5.776;2024-01-25T02:30:44;13.05;;;4.35;;
36989;SDS011;22898;52.102;5.776;2024-01-25T02:33:09;9.25;;;2.58;;
36989;SDS011;22898;52.102;5.776;2024-01-25T02:35:35;9.23;;;2.13;;
36989;SDS011;22898;52.102;5.776;2024-01-25T02:38:02;6.95;;;1.50;;
36989;SDS011;22898;52.102;5.776;2024-01-25T02:40:27;12.27;;;3.50;;
36989;SDS011;22898;52.102;5.776;2024-01-25T02:42:53;8.45;;;1.95;;
36989;SDS011;22898;52.102;5.776;2024-01-25T02:45:18;3.88;;;1.45;;
36989;SDS011;22898;52.102;5.776;2024-01-25T02:47:44;8.85;;;1.90;;
36989;SDS011;22898;52.102;5.776;2024-01-25T02:50:09;13.80;;;2.10;;
36989;SDS011;22898;52.102;5.776;2024-01-25T02:52:35;9.05;;;1.60;;
36989;SDS011;22898;52.102;5.776;2024-01-25T02:55:01;5.88;;;1.83;;
36989;SDS011;22898;52.102;5.776;2024-01-25T02:57:26;7.43;;;1.92;;
36989;SDS011;22898;52.102;5.776;2024-01-25T02:59:52;9.45;;;3.05;;
36989;SDS011;22898;52.102;5.776;2024-01-25T03:02:17;8.25;;;2.10;;
36989;SDS011;22898;52.102;5.776;2024-01-25T03:04:44;10.65;;;1.60;;
36989;SDS011;22898;52.102;5.776;2024-01-25T03:07:11;11.82;;;2.17;;
36989;SDS011;22898;52.102;5.776;2024-01-25T03:09:36;11.43;;;1.70;;
36989;SDS011;22898;52.102;5.776;2024-01-25T03:12:02;5.28;;;1.58;;
36989;SDS011;22898;52.102;5.776;2024-01-25T03:14:28;9.20;;;2.00;;
36989;SDS011;22898;52.102;5.776;2024-01-25T03:16:54;19.02;;;2.88;;
36989;SDS011;22898;52.102;5.776;2024-01-25T03:19:19;7.72;;;1.80;;
36989;SDS011;22898;52.102;5.776;2024-01-25T03:21:45;10.43;;;1.73;;
36989;SDS011;22898;52.102;5.776;2024-01-25T03:24:11;17.40;;;2.90;;
36989;SDS011;22898;52.102;5.776;2024-01-25T03:26:36;8.75;;;2.63;;
36989;SDS011;22898;52.102;5.776;2024-01-25T03:29:02;8.55;;;2.65;;
36989;SDS011;22898;52.102;5.776;2024-01-25T03:31:28;15.02;;;3.10;;
36989;SDS011;22898;52.102;5.776;2024-01-25T03:33:53;11.40;;;2.55;;
36989;SDS011;22898;52.102;5.776;2024-01-25T03:36:19;7.85;;;1.92;;
36989;SDS011;22898;52.102;5.776;2024-01-25T03:38:44;9.45;;;1.98;;
36989;SDS011;22898;52.102;5.776;2024-01-25T03:41:10;3.90;;;1.55;;
36989;SDS011;22898;52.102;5.776;2024-01-25T03:43:36;17.70;;;1.67;;
36989;SDS011;22898;52.102;5.776;2024-01-25T03:46:01;6.00;;;2.45;;
36989;SDS011;22898;52.102;5.776;2024-01-25T03:48:30;8.52;;;1.77;;
36989;SDS011;22898;52.102;5.776;2024-01-25T03:50:55;11.13;;;1.90;;
36989;SDS011;22898;52.102;5.776;2024-01-25T03:53:24;4.50;;;1.83;;
36989;SDS011;22898;52.102;5.776;2024-01-25T03:55:50;9.00;;;2.15;;
36989;SDS011;22898;52.102;5.776;2024-01-25T03:58:18;14.30;;;1.65;;
36989;SDS011;22898;52.102;5.776;2024-01-25T04:00:44;10.98;;;3.25;;
36989;SDS011;22898;52.102;5.776;2024-01-25T04:03:10;9.95;;;2.17;;
36989;SDS011;22898;52.102;5.776;2024-01-25T04:05:35;11.93;;;2.58;;
36989;SDS011;22898;52.102;5.776;2024-01-25T04:08:01;15.35;;;2.90;;
36989;SDS011;22898;52.102;5.776;2024-01-25T04:10:28;17.60;;;2.63;;
36989;SDS011;22898;52.102;5.776;2024-01-25T04:12:54;12.45;;;2.40;;
36989;SDS011;22898;52.102;5.776;2024-01-25T04:15:20;11.60;;;2.45;;
36989;SDS011;22898;52.102;5.776;2024-01-25T04:17:45;9.75;;;2.30;;
36989;SDS011;22898;52.102;5.776;2024-01-25T04:20:11;9.80;;;2.53;;
36989;SDS011;22898;52.102;5.776;2024-01-25T04:22:36;12.13;;;2.92;;
36989;SDS011;22898;52.102;5.776;2024-01-25T04:25:02;9.77;;;3.45;;
36989;SDS011;22898;52.102;5.776;2024-01-25T04:27:29;10.63;;;2.15;;
36989;SDS011;22898;52.102;5.776;2024-01-25T04:29:55;11.48;;;3.25;;
36989;SDS011;22898;52.102;5.776;2024-01-25T04:32:21;11.48;;;2.78;;
36989;SDS011;22898;52.102;5.776;2024-01-25T04:34:46;16.92;;;2.78;;
36989;SDS011;22898;52.102;5.776;2024-01-25T04:37:13;12.95;;;2.28;;
36989;SDS011;22898;52.102;5.776;2024-01-25T04:39:39;20.98;;;3.42;;
36989;SDS011;22898;52.102;5.776;2024-01-25T04:42:04;13.30;;;3.08;;
36989;SDS011;22898;52.102;5.776;2024-01-25T04:44:30;19.13;;;2.88;;
36989;SDS011;22898;52.102;5.776;2024-01-25T04:46:56;7.50;;;2.35;;
36989;SDS011;22898;52.102;5.776;2024-01-25T04:49:21;10.70;;;2.38;;
36989;SDS011;22898;52.102;5.776;2024-01-25T04:51:47;5.78;;;1.95;;
36989;SDS011;22898;52.102;5.776;2024-01-25T04:54:13;11.77;;;2.75;;
36989;SDS011;22898;52.102;5.776;2024-01-25T04:56:40;17.58;;;3.40;;
36989;SDS011;22898;52.102;5.776;2024-01-25T04:59:08;10.68;;;2.05;;
36989;SDS011;22898;52.102;5.776;2024-01-25T05:01:37;6.15;;;3.13;;
36989;SDS011;22898;52.102;5.776;2024-01-25T05:04:02;11.70;;;3.10;;
36989;SDS011;22898;52.102;5.776;2024-01-25T05:06:28;13.32;;;2.90;;
36989;SDS011;22898;52.102;5.776;2024-01-25T05:08:54;14.95;;;4.00;;
36989;SDS011;22898;52.102;5.776;2024-01-25T05:11:19;15.75;;;4.95;;
36989;SDS011;22898;52.102;5.776;2024-01-25T05:13:45;15.82;;;4.88;;
36989;SDS011;22898;52.102;5.776;2024-01-25T05:16:11;9.65;;;2.58;;
36989;SDS011;22898;52.102;5.776;2024-01-25T05:18:38;11.57;;;2.13;;
36989;SDS011;22898;52.102;5.776;2024-01-25T05:21:03;13.30;;;2.42;;
36989;SDS011;22898;52.102;5.776;2024-01-25T05:23:29;9.55;;;3.22;;
36989;SDS011;22898;52.102;5.776;2024-01-25T05:25:55;9.05;;;2.45;;
36989;SDS011;22898;52.102;5.776;2024-01-25T05:28:21;16.95;;;4.30;;
36989;SDS011;22898;52.102;5.776;2024-01-25T05:30:46;15.35;;;3.42;;
36989;SDS011;22898;52.102;5.776;2024-01-25T05:33:12;9.90;;;2.97;;
36989;SDS011;22898;52.102;5.776;2024-01-25T05:35:38;8.40;;;2.22;;
36989;SDS011;22898;52.102;5.776;2024-01-25T05:38:03;9.77;;;2.00;;
36989;SDS011;22898;52.102;5.776;2024-01-25T05:40:29;7.82;;;2.30;;
36989;SDS011;22898;52.102;5.776;2024-01-25T05:42:54;10.60;;;1.70;;
36989;SDS011;22898;52.102;5.776;2024-01-25T05:45:20;14.90;;;2.13;;
36989;SDS011;22898;52.102;5.776;2024-01-25T05:47:46;10.18;;;1.77;;
36989;SDS011;22898;52.102;5.776;2024-01-25T05:50:12;9.55;;;1.67;;
36989;SDS011;22898;52.102;5.776;2024-01-25T05:52:38;12.48;;;2.08;;
36989;SDS011;22898;52.102;5.776;2024-01-25T05:55:04;7.78;;;3.10;;
36989;SDS011;22898;52.102;5.776;2024-01-25T05:57:30;12.57;;;4.05;;
36989;SDS011;22898;52.102;5.776;2024-01-25T05:59:57;16.45;;;4.40;;
36989;SDS011;22898;52.102;5.776;2024-01-25T06:02:22;13.10;;;3.38;;
36989;SDS011;22898;52.102;5.776;2024-01-25T06:04:48;28.33;;;3.10;;
36989;SDS011;22898;52.102;5.776;2024-01-25T06:07:14;10.70;;;2.20;;
36989;SDS011;22898;52.102;5.776;2024-01-25T06:09:39;10.30;;;3.17;;
36989;SDS011;22898;52.102;5.776;2024-01-25T06:12:05;8.48;;;2.17;;
36989;SDS011;22898;52.102;5.776;2024-01-25T06:14:31;14.55;;;2.15;;
36989;SDS011;22898;52.102;5.776;2024-01-25T06:16:56;13.88;;;2.40;;
36989;SDS011;22898;52.102;5.776;2024-01-25T06:19:22;11.02;;;2.50;;
36989;SDS011;22898;52.102;5.776;2024-01-25T06:21:48;5.65;;;1.38;;
36989;SDS011;22898;52.102;5.776;2024-01-25T06:24:14;8.90;;;2.53;;
36989;SDS011;22898;52.102;5.776;2024-01-25T06:26:40;11.57;;;2.65;;
36989;SDS011;22898;52.102;5.776;2024-01-25T06:29:06;3.40;;;1.30;;
36989;SDS011;22898;52.102;5.776;2024-01-25T06:31:31;8.20;;;1.95;;
36989;SDS011;22898;52.102;5.776;2024-01-25T06:33:57;12.90;;;2.20;;
36989;SDS011;22898;52.102;5.776;2024-01-25T06:36:22;7.43;;;1.60;;
36989;SDS011;22898;52.102;5.776;2024-01-25T06:38:48;11.35;;;2.55;;
36989;SDS011;22898;52.102;5.776;2024-01-25T06:41:14;7.90;;;2.08;;
36989;SDS011;22898;52.102;5.776;2024-01-25T06:43:42;9.55;;;1.73;;
36989;SDS011;22898;52.102;5.776;2024-01-25T06:46:09;15.93;;;2.45;;
36989;SDS011;22898;52.102;5.776;2024-01-25T06:48:34;5.65;;;1.70;;
36989;SDS011;22898;52.102;5.776;2024-01-25T06:51:01;8.00;;;2.17;;
36989;SDS011;22898;52.102;5.776;2024-01-25T06:53:26;12.57;;;2.35;;
36989;SDS011;22898;52.102;5.776;2024-01-25T06:55:52;22.85;;;3.85;;
36989;SDS011;22898;52.102;5.776;2024-01-25T06:58:18;14.13;;;2.33;;
36989;SDS011;22898;52.102;5.776;2024-01-25T07:00:43;6.07;;;1.80;;
36989;SDS011;22898;52.102;5.776;2024-01-25T07:03:11;8.48;;;1.83;;
36989;SDS011;22898;52.102;5.776;2024-01-25T07:05:37;9.48;;;2.15;;
36989;SDS011;22898;52.102;5.776;2024-01-25T07:08:03;9.07;;;1.88;;
36989;SDS011;22898;52.102;5.776;2024-01-25T07:10:29;11.75;;;2.08;;
36989;SDS011;22898;52.102;5.776;2024-01-25T07:12:55;10.20;;;1.70;;
36989;SDS011;22898;52.102;5.776;2024-01-25T07:15:21;7.63;;;1.95;;
36989;SDS011;22898;52.102;5.776;2024-01-25T07:17:47;11.63;;;2.83;;
36989;SDS011;22898;52.102;5.776;2024-01-25T07:20:12;5.50;;;1.63;;
36989;SDS011;22898;52.102;5.776;2024-01-25T07:22:39;9.23;;;2.28;;
36989;SDS011;22898;52.102;5.776;2024-01-25T07:25:05;12.93;;;1.83;;
36989;SDS011;22898;52.102;5.776;2024-01-25T07:27:31;11.45;;;1.90;;
36989;SDS011;22898;52.102;5.776;2024-01-25T07:29:57;20.02;;;1.95;;
36989;SDS011;22898;52.102;5.776;2024-01-25T07:32:22;5.38;;;2.30;;
36989;SDS011;22898;52.102;5.776;2024-01-25T07:34:51;12.15;;;3.47;;
36989;SDS011;22898;52.102;5.776;2024-01-25T07:37:18;9.60;;;2.38;;
36989;SDS011;22898;52.102;5.776;2024-01-25T07:39:44;6.82;;;2.30;;
36989;SDS011;22898;52.102;5.776;2024-01-25T07:42:10;8.90;;;2.45;;
36989;SDS011;22898;52.102;5.776;2024-01-25T07:44:36;14.60;;;2.47;;
36989;SDS011;22898;52.102;5.776;2024-01-25T07:47:02;15.73;;;2.63;;
36989;SDS011;22898;52.102;5.776;2024-01-25T07:49:28;10.23;;;3.65;;
36989;SDS011;22898;52.102;5.776;2024-01-25T07:51:54;23.48;;;5.05;;
36989;SDS011;22898;52.102;5.776;2024-01-25T07:54:21;15.40;;;3.60;;
36989;SDS011;22898;52.102;5.776;2024-01-25T07:56:47;11.38;;;3.30;;
36989;SDS011;22898;52.102;5.776;2024-01-25T07:59:13;16.38;;;6.72;;
36989;SDS011;22898;52.102;5.776;2024-01-25T08:01:38;12.23;;;5.45;;
36989;SDS011;22898;52.102;5.776;2024-01-25T08:04:04;9.82;;;2.83;;
36989;SDS011;22898;52.102;5.776;2024-01-25T08:06:29;15.85;;;3.35;;
36989;SDS011;22898;52.102;5.776;2024-01-25T08:08:55;7.22;;;2.70;;
36989;SDS011;22898;52.102;5.776;2024-01-25T08:11:21;7.32;;;2.08;;
36989;SDS011;22898;52.102;5.776;2024-01-25T08:13:46;15.32;;;4.40;;
36989;SDS011;22898;52.102;5.776;2024-01-25T08:16:15;24.30;;;10.02;;
36989;SDS011;22898;52.102;5.776;2024-01-25T08:18:47;13.40;;;4.60;;
36989;SDS011;22898;52.102;5.776;2024-01-25T08:21:13;11.68;;;4.57;;
36989;SDS011;22898;52.102;5.776;2024-01-25T08:23:39;9.85;;;3.55;;
36989;SDS011;22898;52.102;5.776;2024-01-25T08:26:05;28.67;;;11.00;;
36989;SDS011;22898;52.102;5.776;2024-01-25T08:28:35;24.50;;;6.20;;
36989;SDS011;22898;52.102;5.776;2024-01-25T08:31:01;14.05;;;3.67;;
36989;SDS011;22898;52.102;5.776;2024-01-25T08:33:27;6.28;;;2.00;;
36989;SDS011;22898;52.102;5.776;2024-01-25T08:35:52;10.40;;;2.70;;
36989;SDS011;22898;52.102;5.776;2024-01-25T08:38:18;11.15;;;2.03;;
36989;SDS011;22898;52.102;5.776;2024-01-25T08:40:44;9.30;;;2.75;;
36989;SDS011;22898;52.102;5.776;2024-01-25T08:43:09;6.65;;;2.00;;
36989;SDS011;22898;52.102;5.776;2024-01-25T08:45:35;7.95;;;2.20;;
36989;SDS011;22898;52.102;5.776;2024-01-25T08:48:02;15.30;;;3.50;;
36989;SDS011;22898;52.102;5.776;2024-01-25T08:50:27;14.02;;;5.30;;
36989;SDS011;22898;52.102;5.776;2024-01-25T08:52:53;17.40;;;6.47;;
36989;SDS011;22898;52.102;5.776;2024-01-25T08:55:19;9.32;;;5.38;;
36989;SDS011;22898;52.102;5.776;2024-01-25T08:57:44;11.98;;;3.25;;
36989;SDS011;22898;52.102;5.776;2024-01-25T09:00:10;14.35;;;4.43;;
36989;SDS011;22898;52.102;5.776;2024-01-25T09:02:36;10.57;;;3.33;;
36989;SDS011;22898;52.102;5.776;2024-01-25T09:05:04;17.13;;;4.22;;
36989;SDS011;22898;52.102;5.776;2024-01-25T09:07:30;8.48;;;2.88;;
36989;SDS011;22898;52.102;5.776;2024-01-25T09:09:56;11.48;;;2.85;;
36989;SDS011;22898;52.102;5.776;2024-01-25T09:12:21;7.47;;;2.78;;
36989;SDS011;22898;52.102;5.776;2024-01-25T09:14:47;7.78;;;2.33;;
36989;SDS011;22898;52.102;5.776;2024-01-25T09:17:13;8.75;;;2.25;;
36989;SDS011;22898;52.102;5.776;2024-01-25T09:19:46;20.38;;;6.50;;
36989;SDS011;22898;52.102;5.776;2024-01-25T09:22:13;18.83;;;5.22;;
36989;SDS011;22898;52.102;5.776;2024-01-25T09:24:41;5.88;;;2.45;;
36989;SDS011;22898;52.102;5.776;2024-01-25T09:27:06;6.40;;;1.80;;
36989;SDS011;22898;52.102;5.776;2024-01-25T09:29:32;12.52;;;2.25;;
36989;SDS011;22898;52.102;5.776;2024-01-25T09:31:58;11.23;;;2.38;;
36989;SDS011;22898;52.102;5.776;2024-01-25T09:34:23;6.90;;;2.45;;
36989;SDS011;22898;52.102;5.776;2024-01-25T09:36:49;7.95;;;2.08;;
36989;SDS011;22898;52.102;5.776;2024-01-25T09:39:15;6.43;;;3.22;;
36989;SDS011;22898;52.102;5.776;2024-01-25T09:41:40;28.02;;;8.88;;
36989;SDS011;22898;52.102;5.776;2024-01-25T09:44:10;25.33;;;9.43;;
36989;SDS011;22898;52.102;5.776;2024-01-25T09:46:36;25.33;;;9.85;;
36989;SDS011;22898;52.102;5.776;2024-01-25T09:49:03;22.88;;;8.45;;
36989;SDS011;22898;52.102;5.776;2024-01-25T09:51:33;19.20;;;6.43;;
36989;SDS011;22898;52.102;5.776;2024-01-25T09:54:03;24.48;;;5.20;;
36989;SDS011;22898;52.102;5.776;2024-01-25T09:56:31;11.95;;;5.88;;
36989;SDS011;22898;52.102;5.776;2024-01-25T09:58:58;16.15;;;5.05;;
36989;SDS011;22898;52.102;5.776;2024-01-25T10:01:24;13.27;;;4.50;;
36989;SDS011;22898;52.102;5.776;2024-01-25T10:03:50;12.13;;;4.13;;
36989;SDS011;22898;52.102;5.776;2024-01-25T10:06:16;22.05;;;4.50;;
36989;SDS011;22898;52.102;5.776;2024-01-25T10:08:42;11.35;;;3.00;;
36989;SDS011;22898;52.102;5.776;2024-01-25T10:11:08;17.75;;;3.42;;
36989;SDS011;22898;52.102;5.776;2024-01-25T10:13:43;9.82;;;2.80;;
36989;SDS011;22898;52.102;5.776;2024-01-25T10:16:13;11.75;;;3.53;;
36989;SDS011;22898;52.102;5.776;2024-01-25T10:18:42;12.30;;;3.63;;
36989;SDS011;22898;52.102;5.776;2024-01-25T10:21:09;16.25;;;3.38;;
36989;SDS011;22898;52.102;5.776;2024-01-25T10:23:35;17.67;;;3.13;;
36989;SDS011;22898;52.102;5.776;2024-01-25T10:26:02;11.48;;;2.72;;
36989;SDS011;22898;52.102;5.776;2024-01-25T10:28:28;7.28;;;3.13;;
36989;SDS011;22898;52.102;5.776;2024-01-25T10:30:56;26.15;;;3.00;;
36989;SDS011;22898;52.102;5.776;2024-01-25T10:33:26;7.60;;;2.70;;
36989;SDS011;22898;52.102;5.776;2024-01-25T10:35:56;15.82;;;2.97;;
36989;SDS011;22898;52.102;5.776;2024-01-25T10:38:34;15.45;;;3.10;;
36989;SDS011;22898;52.102;5.776;2024-01-25T10:41:01;11.70;;;2.40;;
36989;SDS011;22898;52.102;5.776;2024-01-25T10:43:28;9.25;;;3.15;;
36989;SDS011;22898;52.102;5.776;2024-01-25T10:45:55;9.38;;;3.45;;
36989;SDS011;22898;52.102;5.776;2024-01-25T10:48:24;12.40;;;2.92;;
36989;SDS011;22898;52.102;5.776;2024-01-25T10:50:51;10.02;;;2.75;;
36989;SDS011;22898;52.102;5.776;2024-01-25T10:53:19;11.50;;;3.13;;
36989;SDS011;22898;52.102;5.776;2024-01-25T10:55:47;10.27;;;2.28;;
36989;SDS011;22898;52.102;5.776;2024-01-25T10:58:15;17.35;;;2.88;;
36989;SDS011;22898;52.102;5.776;2024-01-25T11:00:42;14.18;;;3.25;;
36989;SDS011;22898;52.102;5.776;2024-01-25T11:03:18;15.02;;;3.17;;
36989;SDS011;22898;52.102;5.776;2024-01-25T11:05:44;12.10;;;2.72;;
36989;SDS011;22898;52.102;5.776;2024-01-25T11:08:17;13.85;;;2.67;;
36989;SDS011;22898;52.102;5.776;2024-01-25T11:13:13;11.88;;;3.10;;
36989;SDS011;22898;52.102;5.776;2024-01-25T11:15:40;16.08;;;3.05;;
36989;SDS011;22898;52.102;5.776;2024-01-25T11:18:07;17.00;;;2.72;;
36989;SDS011;22898;52.102;5.776;2024-01-25T11:20:34;9.07;;;2.20;;
36989;SDS011;22898;52.102;5.776;2024-01-25T11:23:01;9.45;;;2.78;;
36989;SDS011;22898;52.102;5.776;2024-01-25T11:25:32;12.40;;;3.10;;
36989;SDS011;22898;52.102;5.776;2024-01-25T11:28:02;13.33;;;4.17;;
36989;SDS011;22898;52.102;5.776;2024-01-25T11:30:33;16.48;;;5.15;;
36989;SDS011;22898;52.102;5.776;2024-01-25T11:33:00;21.50;;;3.53;;
36989;SDS011;22898;52.102;5.776;2024-01-25T11:35:26;24.50;;;4.05;;
36989;SDS011;22898;52.102;5.776;2024-01-25T11:37:52;15.18;;;3.90;;
36989;SDS011;22898;52.102;5.776;2024-01-25T11:40:18;14.48;;;3.35;;
36989;SDS011;22898;52.102;5.776;2024-01-25T11:42:45;21.58;;;4.63;;
36989;SDS011;22898;52.102;5.776;2024-01-25T11:45:13;13.95;;;2.33;;
36989;SDS011;22898;52.102;5.776;2024-01-25T11:47:39;15.63;;;3.40;;
36989;SDS011;22898;52.102;5.776;2024-01-25T11:50:06;13.07;;;2.92;;
36989;SDS011;22898;52.102;5.776;2024-01-25T11:52:33;9.75;;;3.22;;
36989;SDS011;22898;52.102;5.776;2024-01-25T11:55:03;15.13;;;3.10;;
36989;SDS011;22898;52.102;5.776;2024-01-25T11:57:31;18.48;;;3.92;;
36989;SDS011;22898;52.102;5.776;2024-01-25T12:00:00;18.67;;;3.58;;
36989;SDS011;22898;52.102;5.776;2024-01-25T12:02:26;11.88;;;3.85;;
36989;SDS011;22898;52.102;5.776;2024-01-25T12:04:52;18.48;;;3.28;;
36989;SDS011;22898;52.102;5.776;2024-01-25T12:07:20;17.42;;;3.20;;
36989;SDS011;22898;52.102;5.776;2024-01-25T12:09:59;11.90;;;3.20;;
36989;SDS011;22898;52.102;5.776;2024-01-25T12:12:27;12.60;;;3.33;;
36989;SDS011;22898;52.102;5.776;2024-01-25T12:15:00;12.65;;;3.85;;
36989;SDS011;22898;52.102;5.776;2024-01-25T12:17:29;22.60;;;4.47;;
36989;SDS011;22898;52.102;5.776;2024-01-25T12:19:56;16.48;;;3.40;;
36989;SDS011;22898;52.102;5.776;2024-01-25T12:22:26;22.10;;;3.92;;
36989;SDS011;22898;52.102;5.776;2024-01-25T12:24:55;13.13;;;2.30;;
36989;SDS011;22898;52.102;5.776;2024-01-25T12:27:22;16.50;;;2.88;;
36989;SDS011;22898;52.102;5.776;2024-01-25T12:29:50;9.80;;;2.72;;
36989;SDS011;22898;52.102;5.776;2024-01-25T12:32:18;10.20;;;2.83;;
36989;SDS011;22898;52.102;5.776;2024-01-25T12:34:56;13.23;;;2.78;;
36989;SDS011;22898;52.102;5.776;2024-01-25T12:37:23;15.45;;;2.58;;
36989;SDS011;22898;52.102;5.776;2024-01-25T12:39:52;8.27;;;2.92;;
36989;SDS011;22898;52.102;5.776;2024-01-25T12:42:19;17.63;;;3.92;;
36989;SDS011;22898;52.102;5.776;2024-01-25T12:44:45;20.45;;;2.95;;
36989;SDS011;22898;52.102;5.776;2024-01-25T12:47:11;11.50;;;3.00;;
36989;SDS011;22898;52.102;5.776;2024-01-25T12:49:40;14.13;;;3.70;;
36989;SDS011;22898;52.102;5.776;2024-01-25T12:52:07;16.17;;;3.90;;
36989;SDS011;22898;52.102;5.776;2024-01-25T12:54:33;16.73;;;3.92;;
36989;SDS011;22898;52.102;5.776;2024-01-25T12:57:00;17.55;;;4.18;;
36989;SDS011;22898;52.102;5.776;2024-01-25T12:59:25;23.35;;;4.30;;
36989;SDS011;22898;52.102;5.776;2024-01-25T13:01:51;12.35;;;3.05;;
36989;SDS011;22898;52.102;5.776;2024-01-25T13:04:17;6.97;;;3.20;;
36989;SDS011;22898;52.102;5.776;2024-01-25T13:06:42;18.13;;;4.38;;
36989;SDS011;22898;52.102;5.776;2024-01-25T13:09:08;14.27;;;3.83;;
36989;SDS011;22898;52.102;5.776;2024-01-25T13:11:33;10.95;;;4.30;;
36989;SDS011;22898;52.102;5.776;2024-01-25T13:14:00;16.95;;;4.97;;
36989;SDS011;22898;52.102;5.776;2024-01-25T13:16:25;14.10;;;4.57;;
36989;SDS011;22898;52.102;5.776;2024-01-25T13:18:51;16.63;;;4.32;;
36989;SDS011;22898;52.102;5.776;2024-01-25T13:21:17;16.63;;;4.65;;
36989;SDS011;22898;52.102;5.776;2024-01-25T13:23:42;17.48;;;5.70;;
36989;SDS011;22898;52.102;5.776;2024-01-25T13:26:08;21.65;;;4.80;;
36989;SDS011;22898;52.102;5.776;2024-01-25T13:28:33;16.73;;;5.90;;
36989;SDS011;22898;52.102;5.776;2024-01-25T13:31:00;16.08;;;5.80;;
36989;SDS011;22898;52.102;5.776;2024-01-25T13:33:25;14.90;;;3.65;;
36989;SDS011;22898;52.102;5.776;2024-01-25T13:35:51;12.32;;;3.53;;
36989;SDS011;22898;52.102;5.776;2024-01-25T13:38:16;13.73;;;3.75;;
36989;SDS011;22898;52.102;5.776;2024-01-25T13:40:42;17.85;;;5.07;;
36989;SDS011;22898;52.102;5.776;2024-01-25T13:43:08;11.20;;;3.90;;
36989;SDS011;22898;52.102;5.776;2024-01-25T13:45:34;18.75;;;5.15;;
36989;SDS011;22898;52.102;5.776;2024-01-25T13:48:00;17.02;;;4.57;;
36989;SDS011;22898;52.102;5.776;2024-01-25T13:50:25;19.50;;;4.57;;
36989;SDS011;22898;52.102;5.776;2024-01-25T13:52:51;14.80;;;4.07;;
36989;SDS011;22898;52.102;5.776;2024-01-25T13:55:16;14.80;;;3.47;;
36989;SDS011;22898;52.102;5.776;2024-01-25T13:57:42;40.40;;;11.63;;
36989;SDS011;22898;52.102;5.776;2024-01-25T14:00:08;39.83;;;15.65;;
36989;SDS011;22898;52.102;5.776;2024-01-25T14:02:35;31.95;;;8.15;;
36989;SDS011;22898;52.102;5.776;2024-01-25T14:05:01;44.38;;;14.35;;
36989;SDS011;22898;52.102;5.776;2024-01-25T14:07:27;32.40;;;10.80;;
36989;SDS011;22898;52.102;5.776;2024-01-25T14:09:52;54.17;;;18.63;;
36989;SDS011;22898;52.102;5.776;2024-01-25T14:12:18;35.33;;;11.80;;
36989;SDS011;22898;52.102;5.776;2024-01-25T14:14:44;28.65;;;9.95;;
36989;SDS011;22898;52.102;5.776;2024-01-25T14:17:09;20.40;;;6.32;;
36989;SDS011;22898;52.102;5.776;2024-01-25T14:19:35;26.63;;;7.13;;
36989;SDS011;22898;52.102;5.776;2024-01-25T14:22:01;25.02;;;8.85;;
36989;SDS011;22898;52.102;5.776;2024-01-25T14:24:26;17.73;;;4.78;;
36989;SDS011;22898;52.102;5.776;2024-01-25T14:26:52;18.52;;;4.88;;
36989;SDS011;22898;52.102;5.776;2024-01-25T14:29:17;20.58;;;5.32;;
36989;SDS011;22898;52.102;5.776;2024-01-25T14:31:43;13.35;;;4.40;;
36989;SDS011;22898;52.102;5.776;2024-01-25T14:34:09;15.43;;;5.10;;
36989;SDS011;22898;52.102;5.776;2024-01-25T14:36:35;13.65;;;3.80;;